sensor_id;sensor_type;location;lat;lon;timestamp;P1;durP1;ratioP1;P2;durP2;ratioP2
69954;SDS011;57279;55.912;37.490;2023-05-16T00:00:06;22.40;;;6.93;;
69954;SDS011;57279;55.912;37.490;2023-05-16T00:02:34;31.42;;;6.28;;
69954;SDS011;57279;55.912;37.490;2023-05-16T00:05:02;49.05;;;7.95;;
69954;SDS011;57279;55.912;37.490;2023-05-16T00:07:29;40.67;;;8.10;;
69954;SDS011;57279;55.912;37.490;2023-05-16T00:09:55;31.45;;;6.35;;
69954;SDS011;57279;55.912;37.490;2023-05-16T00:12:21;33.33;;;5.80;;
69954;SDS011;57279;55.912;37.490;2023-05-16T00:14:47;27.52;;;7.57;;
69954;SDS011;57279;55.912;37.490;2023-05-16T00:17:14;25.33;;;6.57;;
69954;SDS011;57279;55.912;37.490;2023-05-16T00:19:42;37.47;;;6.97;;
69954;SDS011;57279;55.912;37.490;2023-05-16T00:22:09;29.17;;;6.88;;
69954;SDS011;57279;55.912;37.490;2023-05-16T00:24:35;35.20;;;7.90;;
69954;SDS011;57279;55.912;37.490;2023-05-16T00:27:01;24.83;;;6.65;;
69954;SDS011;57279;55.912;37.490;2023-05-16T00:29:31;27.50;;;6.45;;
69954;SDS011;57279;55.912;37.490;2023-05-16T00:31:57;26.83;;;6.13;;
69954;SDS011;57279;55.912;37.490;2023-05-16T00:34:22;22.48;;;6.38;;
69954;SDS011;57279;55.912;37.490;2023-05-16T00:36:51;33.05;;;7.57;;
69954;SDS011;57279;55.912;37.490;2023-05-16T00:39:17;28.35;;;6.38;;
69954;SDS011;57279;55.912;37.490;2023-05-16T00:41:43;18.73;;;6.60;;
69954;SDS011;57279;55.912;37.490;2023-05-16T00:44:10;21.42;;;6.25;;
69954;SDS011;57279;55.912;37.490;2023-05-16T00:46:35;30.45;;;6.60;;
69954;SDS011;57279;55.912;37.490;2023-05-16T00:49:01;23.02;;;8.20;;
69954;SDS011;57279;55.912;37.490;2023-05-16T00:51:27;27.33;;;6.47;;
69954;SDS011;57279;55.912;37.490;2023-05-16T00:53:54;21.75;;;6.45;;
69954;SDS011;57279;55.912;37.490;2023-05-16T00:56:21;18.55;;;5.82;;
69954;SDS011;57279;55.912;37.490;2023-05-16T00:58:46;18.08;;;5.93;;
69954;SDS011;57279;55.912;37.490;2023-05-16T01:01:13;17.20;;;5.80;;
69954;SDS011;57279;55.912;37.490;2023-05-16T01:03:38;23.70;;;6.65;;
69954;SDS011;57279;55.912;37.490;2023-05-16T01:06:04;18.95;;;5.60;;
69954;SDS011;57279;55.912;37.490;2023-05-16T01:08:32;16.30;;;5.22;;
69954;SDS011;57279;55.912;37.490;2023-05-16T01:11:07;14.68;;;4.85;;
69954;SDS011;57279;55.912;37.490;2023-05-16T01:16:30;13.80;;;5.32;;
69954;SDS011;57279;55.912;37.490;2023-05-16T01:22:40;20.10;;;6.03;;
69954;SDS011;57279;55.912;37.490;2023-05-16T01:25:30;21.63;;;6.35;;
69954;SDS011;57279;55.912;37.490;2023-05-16T01:28:15;24.35;;;6.57;;
69954;SDS011;57279;55.912;37.490;2023-05-16T01:30:42;33.03;;;8.15;;
69954;SDS011;57279;55.912;37.490;2023-05-16T01:33:08;37.15;;;9.25;;
69954;SDS011;57279;55.912;37.490;2023-05-16T01:35:46;27.05;;;6.53;;
69954;SDS011;57279;55.912;37.490;2023-05-16T01:38:26;32.40;;;7.05;;
69954;SDS011;57279;55.912;37.490;2023-05-16T01:43:51;28.25;;;6.57;;
69954;SDS011;57279;55.912;37.490;2023-05-16T01:46:23;26.30;;;7.13;;
69954;SDS011;57279;55.912;37.490;2023-05-16T01:48:54;27.13;;;7.05;;
69954;SDS011;57279;55.912;37.490;2023-05-16T01:51:27;19.58;;;6.60;;
69954;SDS011;57279;55.912;37.490;2023-05-16T01:53:57;29.67;;;6.78;;
69954;SDS011;57279;55.912;37.490;2023-05-16T01:56:29;27.98;;;7.28;;
69954;SDS011;57279;55.912;37.490;2023-05-16T01:58:56;24.83;;;6.68;;
69954;SDS011;57279;55.912;37.490;2023-05-16T02:01:23;31.30;;;7.05;;
69954;SDS011;57279;55.912;37.490;2023-05-16T02:03:49;21.60;;;6.50;;
69954;SDS011;57279;55.912;37.490;2023-05-16T02:06:15;21.83;;;6.55;;
69954;SDS011;57279;55.912;37.490;2023-05-16T02:08:41;22.80;;;7.32;;
69954;SDS011;57279;55.912;37.490;2023-05-16T02:11:07;25.45;;;6.72;;
69954;SDS011;57279;55.912;37.490;2023-05-16T02:13:33;26.80;;;7.85;;
69954;SDS011;57279;55.912;37.490;2023-05-16T02:16:02;29.85;;;7.45;;
69954;SDS011;57279;55.912;37.490;2023-05-16T02:18:28;30.00;;;7.70;;
69954;SDS011;57279;55.912;37.490;2023-05-16T02:20:54;31.17;;;7.28;;
69954;SDS011;57279;55.912;37.490;2023-05-16T02:23:19;33.05;;;7.22;;
69954;SDS011;57279;55.912;37.490;2023-05-16T02:25:45;32.85;;;7.60;;
69954;SDS011;57279;55.912;37.490;2023-05-16T02:28:11;25.23;;;7.50;;
69954;SDS011;57279;55.912;37.490;2023-05-16T02:30:36;31.45;;;7.57;;
69954;SDS011;57279;55.912;37.490;2023-05-16T02:35:28;30.38;;;7.80;;
69954;SDS011;57279;55.912;37.490;2023-05-16T02:37:54;28.10;;;7.88;;
69954;SDS011;57279;55.912;37.490;2023-05-16T02:40:23;28.10;;;7.93;;
69954;SDS011;57279;55.912;37.490;2023-05-16T02:42:48;40.80;;;8.20;;
69954;SDS011;57279;55.912;37.490;2023-05-16T02:45:14;50.25;;;8.50;;
69954;SDS011;57279;55.912;37.490;2023-05-16T02:47:40;32.97;;;8.63;;
69954;SDS011;57279;55.912;37.490;2023-05-16T02:50:06;37.75;;;8.65;;
69954;SDS011;57279;55.912;37.490;2023-05-16T02:52:33;27.08;;;7.82;;
69954;SDS011;57279;55.912;37.490;2023-05-16T02:54:59;33.63;;;9.15;;
69954;SDS011;57279;55.912;37.490;2023-05-16T02:57:24;30.50;;;8.13;;
69954;SDS011;57279;55.912;37.490;2023-05-16T02:59:50;29.80;;;8.57;;
69954;SDS011;57279;55.912;37.490;2023-05-16T03:02:16;26.38;;;7.95;;
69954;SDS011;57279;55.912;37.490;2023-05-16T03:04:42;22.08;;;8.18;;
69954;SDS011;57279;55.912;37.490;2023-05-16T03:07:07;30.40;;;9.40;;
69954;SDS011;57279;55.912;37.490;2023-05-16T03:09:33;36.00;;;8.98;;
69954;SDS011;57279;55.912;37.490;2023-05-16T03:11:59;23.33;;;8.48;;
69954;SDS011;57279;55.912;37.490;2023-05-16T03:14:24;28.85;;;8.85;;
69954;SDS011;57279;55.912;37.490;2023-05-16T03:16:50;26.88;;;9.50;;
69954;SDS011;57279;55.912;37.490;2023-05-16T03:19:17;28.65;;;9.80;;
69954;SDS011;57279;55.912;37.490;2023-05-16T03:21:43;42.53;;;9.05;;
69954;SDS011;57279;55.912;37.490;2023-05-16T03:24:09;29.33;;;10.00;;
69954;SDS011;57279;55.912;37.490;2023-05-16T03:26:35;30.95;;;8.98;;
69954;SDS011;57279;55.912;37.490;2023-05-16T03:29:01;32.90;;;9.10;;
69954;SDS011;57279;55.912;37.490;2023-05-16T03:31:26;28.55;;;8.07;;
69954;SDS011;57279;55.912;37.490;2023-05-16T03:33:52;31.45;;;8.95;;
69954;SDS011;57279;55.912;37.490;2023-05-16T03:36:20;27.45;;;7.75;;
69954;SDS011;57279;55.912;37.490;2023-05-16T03:38:46;25.90;;;7.63;;
69954;SDS011;57279;55.912;37.490;2023-05-16T03:41:11;26.85;;;7.13;;
69954;SDS011;57279;55.912;37.490;2023-05-16T03:43:37;25.95;;;7.82;;
69954;SDS011;57279;55.912;37.490;2023-05-16T03:46:03;31.15;;;6.95;;
69954;SDS011;57279;55.912;37.490;2023-05-16T03:48:28;18.02;;;6.38;;
69954;SDS011;57279;55.912;37.490;2023-05-16T03:50:54;16.23;;;6.28;;
69954;SDS011;57279;55.912;37.490;2023-05-16T03:53:20;20.50;;;5.75;;
69954;SDS011;57279;55.912;37.490;2023-05-16T03:55:45;20.42;;;7.00;;
69954;SDS011;57279;55.912;37.490;2023-05-16T03:58:11;20.98;;;6.53;;
69954;SDS011;57279;55.912;37.490;2023-05-16T04:00:37;19.90;;;6.38;;
69954;SDS011;57279;55.912;37.490;2023-05-16T04:03:02;19.77;;;6.53;;
69954;SDS011;57279;55.912;37.490;2023-05-16T04:05:29;18.60;;;5.78;;
69954;SDS011;57279;55.912;37.490;2023-05-16T04:07:54;18.80;;;5.60;;
69954;SDS011;57279;55.912;37.490;2023-05-16T04:10:21;18.27;;;5.57;;
69954;SDS011;57279;55.912;37.490;2023-05-16T04:12:46;14.82;;;4.70;;
69954;SDS011;57279;55.912;37.490;2023-05-16T04:18:03;14.60;;;4.38;;
69954;SDS011;57279;55.912;37.490;2023-05-16T04:20:29;16.15;;;4.60;;
69954;SDS011;57279;55.912;37.490;2023-05-16T04:22:54;33.35;;;6.07;;
69954;SDS011;57279;55.912;37.490;2023-05-16T04:25:20;18.58;;;4.63;;
69954;SDS011;57279;55.912;37.490;2023-05-16T04:27:46;16.73;;;4.88;;
69954;SDS011;57279;55.912;37.490;2023-05-16T04:30:12;17.27;;;3.92;;
69954;SDS011;57279;55.912;37.490;2023-05-16T04:32:38;18.50;;;4.05;;
69954;SDS011;57279;55.912;37.490;2023-05-16T04:35:04;16.65;;;3.97;;
69954;SDS011;57279;55.912;37.490;2023-05-16T04:37:33;15.10;;;3.70;;
69954;SDS011;57279;55.912;37.490;2023-05-16T04:40:00;17.17;;;4.30;;
69954;SDS011;57279;55.912;37.490;2023-05-16T04:42:26;17.45;;;4.50;;
69954;SDS011;57279;55.912;37.490;2023-05-16T04:44:51;24.25;;;4.47;;
69954;SDS011;57279;55.912;37.490;2023-05-16T04:47:17;18.90;;;3.92;;
69954;SDS011;57279;55.912;37.490;2023-05-16T04:49:43;18.33;;;4.40;;
69954;SDS011;57279;55.912;37.490;2023-05-16T04:52:08;17.38;;;4.05;;
69954;SDS011;57279;55.912;37.490;2023-05-16T04:54:37;17.42;;;4.13;;
69954;SDS011;57279;55.912;37.490;2023-05-16T04:57:04;16.27;;;4.93;;
69954;SDS011;57279;55.912;37.490;2023-05-16T04:59:30;17.33;;;4.40;;
69954;SDS011;57279;55.912;37.490;2023-05-16T05:01:55;14.55;;;4.35;;
69954;SDS011;57279;55.912;37.490;2023-05-16T05:04:21;17.25;;;4.72;;
69954;SDS011;57279;55.912;37.490;2023-05-16T05:06:47;14.73;;;3.83;;
69954;SDS011;57279;55.912;37.490;2023-05-16T05:09:13;18.52;;;3.63;;
69954;SDS011;57279;55.912;37.490;2023-05-16T05:11:38;18.88;;;3.65;;
69954;SDS011;57279;55.912;37.490;2023-05-16T05:14:04;18.90;;;2.88;;
69954;SDS011;57279;55.912;37.490;2023-05-16T05:16:30;16.58;;;2.88;;
69954;SDS011;57279;55.912;37.490;2023-05-16T05:18:56;14.00;;;3.30;;
69954;SDS011;57279;55.912;37.490;2023-05-16T05:21:22;14.02;;;3.08;;
69954;SDS011;57279;55.912;37.490;2023-05-16T05:23:49;17.90;;;2.90;;
69954;SDS011;57279;55.912;37.490;2023-05-16T05:26:15;10.80;;;2.45;;
69954;SDS011;57279;55.912;37.490;2023-05-16T05:28:41;11.88;;;2.38;;
69954;SDS011;57279;55.912;37.490;2023-05-16T05:31:07;12.10;;;2.58;;
69954;SDS011;57279;55.912;37.490;2023-05-16T05:33:33;14.90;;;3.22;;
69954;SDS011;57279;55.912;37.490;2023-05-16T05:35:59;8.32;;;2.03;;
69954;SDS011;57279;55.912;37.490;2023-05-16T05:38:25;9.02;;;1.80;;
69954;SDS011;57279;55.912;37.490;2023-05-16T05:40:51;9.88;;;2.05;;
69954;SDS011;57279;55.912;37.490;2023-05-16T05:43:17;16.60;;;1.63;;
69954;SDS011;57279;55.912;37.490;2023-05-16T05:45:42;14.27;;;1.70;;
69954;SDS011;57279;55.912;37.490;2023-05-16T05:48:08;13.75;;;1.75;;
69954;SDS011;57279;55.912;37.490;2023-05-16T05:50:35;21.60;;;1.85;;
69954;SDS011;57279;55.912;37.490;2023-05-16T05:53:02;16.90;;;2.03;;
69954;SDS011;57279;55.912;37.490;2023-05-16T05:55:28;7.68;;;1.45;;
69954;SDS011;57279;55.912;37.490;2023-05-16T05:57:54;7.18;;;1.20;;
69954;SDS011;57279;55.912;37.490;2023-05-16T06:00:20;11.57;;;1.65;;
69954;SDS011;57279;55.912;37.490;2023-05-16T06:02:46;7.97;;;1.20;;
69954;SDS011;57279;55.912;37.490;2023-05-16T06:05:13;12.07;;;1.58;;
69954;SDS011;57279;55.912;37.490;2023-05-16T06:07:38;8.10;;;1.48;;
69954;SDS011;57279;55.912;37.490;2023-05-16T06:10:04;8.07;;;1.58;;
69954;SDS011;57279;55.912;37.490;2023-05-16T06:12:32;8.23;;;1.63;;
69954;SDS011;57279;55.912;37.490;2023-05-16T06:14:58;13.98;;;1.77;;
69954;SDS011;57279;55.912;37.490;2023-05-16T06:17:24;7.10;;;1.42;;
69954;SDS011;57279;55.912;37.490;2023-05-16T06:19:49;14.60;;;1.92;;
69954;SDS011;57279;55.912;37.490;2023-05-16T06:22:15;10.68;;;1.75;;
69954;SDS011;57279;55.912;37.490;2023-05-16T06:24:41;14.70;;;1.73;;
69954;SDS011;57279;55.912;37.490;2023-05-16T06:27:07;7.47;;;1.23;;
69954;SDS011;57279;55.912;37.490;2023-05-16T06:29:33;12.52;;;1.80;;
69954;SDS011;57279;55.912;37.490;2023-05-16T06:31:58;11.05;;;1.05;;
69954;SDS011;57279;55.912;37.490;2023-05-16T06:34:24;9.68;;;1.27;;
69954;SDS011;57279;55.912;37.490;2023-05-16T06:36:55;5.75;;;1.27;;
69954;SDS011;57279;55.912;37.490;2023-05-16T06:39:21;7.97;;;1.25;;
69954;SDS011;57279;55.912;37.490;2023-05-16T06:41:46;10.82;;;1.70;;
69954;SDS011;57279;55.912;37.490;2023-05-16T06:44:14;10.23;;;1.83;;
69954;SDS011;57279;55.912;37.490;2023-05-16T06:46:40;10.32;;;1.73;;
69954;SDS011;57279;55.912;37.490;2023-05-16T06:49:06;13.02;;;1.55;;
69954;SDS011;57279;55.912;37.490;2023-05-16T06:51:31;7.03;;;1.58;;
69954;SDS011;57279;55.912;37.490;2023-05-16T06:53:57;7.75;;;1.90;;
69954;SDS011;57279;55.912;37.490;2023-05-16T06:56:22;14.82;;;1.50;;
69954;SDS011;57279;55.912;37.490;2023-05-16T06:58:48;11.73;;;1.92;;
69954;SDS011;57279;55.912;37.490;2023-05-16T07:01:14;11.65;;;1.52;;
69954;SDS011;57279;55.912;37.490;2023-05-16T07:03:40;12.02;;;1.65;;
69954;SDS011;57279;55.912;37.490;2023-05-16T07:06:06;13.93;;;2.08;;
69954;SDS011;57279;55.912;37.490;2023-05-16T07:08:32;8.85;;;1.50;;
69954;SDS011;57279;55.912;37.490;2023-05-16T07:11:00;13.55;;;1.77;;
69954;SDS011;57279;55.912;37.490;2023-05-16T07:13:26;10.10;;;1.65;;
69954;SDS011;57279;55.912;37.490;2023-05-16T07:15:51;7.75;;;1.15;;
69954;SDS011;57279;55.912;37.490;2023-05-16T07:18:17;8.10;;;1.13;;
69954;SDS011;57279;55.912;37.490;2023-05-16T07:20:43;12.85;;;1.10;;
69954;SDS011;57279;55.912;37.490;2023-05-16T07:23:10;14.10;;;1.33;;
69954;SDS011;57279;55.912;37.490;2023-05-16T07:25:36;16.58;;;1.55;;
69954;SDS011;57279;55.912;37.490;2023-05-16T07:28:02;7.57;;;1.08;;
69954;SDS011;57279;55.912;37.490;2023-05-16T07:30:28;7.65;;;1.13;;
69954;SDS011;57279;55.912;37.490;2023-05-16T07:32:55;11.65;;;1.13;;
69954;SDS011;57279;55.912;37.490;2023-05-16T07:35:20;7.50;;;0.90;;
69954;SDS011;57279;55.912;37.490;2023-05-16T07:37:46;6.40;;;0.82;;
69954;SDS011;57279;55.912;37.490;2023-05-16T07:40:12;6.65;;;1.00;;
69954;SDS011;57279;55.912;37.490;2023-05-16T07:42:39;8.73;;;1.05;;
69954;SDS011;57279;55.912;37.490;2023-05-16T07:45:05;6.03;;;0.82;;
69954;SDS011;57279;55.912;37.490;2023-05-16T07:47:32;11.52;;;1.10;;
69954;SDS011;57279;55.912;37.490;2023-05-16T07:49:58;7.97;;;1.05;;
69954;SDS011;57279;55.912;37.490;2023-05-16T07:52:24;7.40;;;0.80;;
69954;SDS011;57279;55.912;37.490;2023-05-16T07:54:51;6.38;;;0.98;;
69954;SDS011;57279;55.912;37.490;2023-05-16T07:57:17;6.35;;;0.80;;
69954;SDS011;57279;55.912;37.490;2023-05-16T07:59:43;5.68;;;0.82;;
69954;SDS011;57279;55.912;37.490;2023-05-16T08:02:09;10.38;;;1.10;;
69954;SDS011;57279;55.912;37.490;2023-05-16T08:04:35;9.65;;;1.17;;
69954;SDS011;57279;55.912;37.490;2023-05-16T08:07:01;3.60;;;0.70;;
69954;SDS011;57279;55.912;37.490;2023-05-16T08:09:27;7.70;;;0.80;;
69954;SDS011;57279;55.912;37.490;2023-05-16T08:11:53;5.78;;;0.68;;
69954;SDS011;57279;55.912;37.490;2023-05-16T08:14:19;5.22;;;0.60;;
69954;SDS011;57279;55.912;37.490;2023-05-16T08:16:44;11.68;;;0.80;;
69954;SDS011;57279;55.912;37.490;2023-05-16T08:19:10;5.10;;;0.65;;
69954;SDS011;57279;55.912;37.490;2023-05-16T08:21:38;5.90;;;0.80;;
69954;SDS011;57279;55.912;37.490;2023-05-16T08:24:05;8.38;;;0.60;;
69954;SDS011;57279;55.912;37.490;2023-05-16T08:26:31;17.55;;;1.33;;
69954;SDS011;57279;55.912;37.490;2023-05-16T08:28:57;10.68;;;0.80;;
69954;SDS011;57279;55.912;37.490;2023-05-16T08:31:22;7.07;;;0.93;;
69954;SDS011;57279;55.912;37.490;2023-05-16T08:33:48;8.10;;;0.98;;
69954;SDS011;57279;55.912;37.490;2023-05-16T08:36:14;9.43;;;1.02;;
69954;SDS011;57279;55.912;37.490;2023-05-16T08:38:40;4.15;;;0.63;;
69954;SDS011;57279;55.912;37.490;2023-05-16T08:41:06;6.65;;;0.73;;
69954;SDS011;57279;55.912;37.490;2023-05-16T08:43:32;6.07;;;0.70;;
69954;SDS011;57279;55.912;37.490;2023-05-16T08:45:59;7.18;;;1.00;;
69954;SDS011;57279;55.912;37.490;2023-05-16T08:48:25;5.22;;;0.82;;
69954;SDS011;57279;55.912;37.490;2023-05-16T08:50:53;7.78;;;1.02;;
69954;SDS011;57279;55.912;37.490;2023-05-16T08:53:23;5.78;;;0.73;;
69954;SDS011;57279;55.912;37.490;2023-05-16T08:55:53;10.20;;;1.10;;
69954;SDS011;57279;55.912;37.490;2023-05-16T08:58:20;8.68;;;1.10;;
69954;SDS011;57279;55.912;37.490;2023-05-16T09:00:47;7.68;;;1.00;;
69954;SDS011;57279;55.912;37.490;2023-05-16T09:03:13;6.55;;;0.90;;
69954;SDS011;57279;55.912;37.490;2023-05-16T09:05:39;6.60;;;1.02;;
69954;SDS011;57279;55.912;37.490;2023-05-16T09:08:05;14.07;;;1.15;;
69954;SDS011;57279;55.912;37.490;2023-05-16T09:10:31;13.10;;;0.93;;
69954;SDS011;57279;55.912;37.490;2023-05-16T09:12:57;10.77;;;1.10;;
69954;SDS011;57279;55.912;37.490;2023-05-16T09:15:22;10.30;;;1.48;;
69954;SDS011;57279;55.912;37.490;2023-05-16T09:17:58;8.35;;;1.60;;
69954;SDS011;57279;55.912;37.490;2023-05-16T09:20:25;5.35;;;1.05;;
69954;SDS011;57279;55.912;37.490;2023-05-16T09:22:52;13.07;;;0.80;;
69954;SDS011;57279;55.912;37.490;2023-05-16T09:25:23;12.20;;;1.02;;
69954;SDS011;57279;55.912;37.490;2023-05-16T09:27:53;5.70;;;0.65;;
69954;SDS011;57279;55.912;37.490;2023-05-16T09:30:20;8.40;;;0.63;;
69954;SDS011;57279;55.912;37.490;2023-05-16T09:32:50;5.38;;;0.93;;
69954;SDS011;57279;55.912;37.490;2023-05-16T09:35:18;12.77;;;0.80;;
69954;SDS011;57279;55.912;37.490;2023-05-16T09:37:45;6.70;;;0.52;;
69954;SDS011;57279;55.912;37.490;2023-05-16T09:40:12;10.30;;;0.85;;
69954;SDS011;57279;55.912;37.490;2023-05-16T09:42:38;5.50;;;0.80;;
69954;SDS011;57279;55.912;37.490;2023-05-16T09:45:04;5.32;;;0.85;;
69954;SDS011;57279;55.912;37.490;2023-05-16T09:47:30;6.90;;;0.73;;
69954;SDS011;57279;55.912;37.490;2023-05-16T09:49:56;12.25;;;0.82;;
69954;SDS011;57279;55.912;37.490;2023-05-16T09:52:25;9.27;;;0.73;;
69954;SDS011;57279;55.912;37.490;2023-05-16T09:54:51;9.45;;;1.20;;
69954;SDS011;57279;55.912;37.490;2023-05-16T09:57:20;11.60;;;0.82;;
69954;SDS011;57279;55.912;37.490;2023-05-16T09:59:48;8.48;;;0.90;;
69954;SDS011;57279;55.912;37.490;2023-05-16T10:02:14;10.52;;;0.85;;
69954;SDS011;57279;55.912;37.490;2023-05-16T10:04:41;11.52;;;0.77;;
69954;SDS011;57279;55.912;37.490;2023-05-16T10:07:08;12.48;;;0.90;;
69954;SDS011;57279;55.912;37.490;2023-05-16T10:09:35;5.80;;;1.02;;
69954;SDS011;57279;55.912;37.490;2023-05-16T10:12:02;7.18;;;0.80;;
69954;SDS011;57279;55.912;37.490;2023-05-16T10:14:36;5.88;;;0.80;;
69954;SDS011;57279;55.912;37.490;2023-05-16T10:17:06;8.05;;;0.70;;
69954;SDS011;57279;55.912;37.490;2023-05-16T10:19:35;9.07;;;0.82;;
69954;SDS011;57279;55.912;37.490;2023-05-16T10:22:04;5.97;;;1.17;;
69954;SDS011;57279;55.912;37.490;2023-05-16T10:24:55;9.48;;;0.80;;
69954;SDS011;57279;55.912;37.490;2023-05-16T10:27:23;10.77;;;1.17;;
69954;SDS011;57279;55.912;37.490;2023-05-16T10:29:50;13.50;;;0.98;;
69954;SDS011;57279;55.912;37.490;2023-05-16T10:32:17;8.68;;;1.02;;
69954;SDS011;57279;55.912;37.490;2023-05-16T10:34:44;7.15;;;0.95;;
69954;SDS011;57279;55.912;37.490;2023-05-16T10:37:10;8.90;;;0.80;;
69954;SDS011;57279;55.912;37.490;2023-05-16T10:39:37;7.55;;;1.00;;
69954;SDS011;57279;55.912;37.490;2023-05-16T10:42:05;10.65;;;1.15;;
69954;SDS011;57279;55.912;37.490;2023-05-16T10:44:31;11.90;;;1.17;;
69954;SDS011;57279;55.912;37.490;2023-05-16T10:46:59;11.82;;;1.13;;
69954;SDS011;57279;55.912;37.490;2023-05-16T10:49:25;6.95;;;1.17;;
69954;SDS011;57279;55.912;37.490;2023-05-16T10:54:34;6.88;;;0.88;;
69954;SDS011;57279;55.912;37.490;2023-05-16T10:57:21;5.88;;;0.77;;
69954;SDS011;57279;55.912;37.490;2023-05-16T10:59:48;10.70;;;1.23;;
69954;SDS011;57279;55.912;37.490;2023-05-16T11:04:56;9.18;;;1.33;;
69954;SDS011;57279;55.912;37.490;2023-05-16T11:07:32;8.80;;;1.30;;
69954;SDS011;57279;55.912;37.490;2023-05-16T11:12:53;14.73;;;2.20;;
69954;SDS011;57279;55.912;37.490;2023-05-16T11:15:22;9.60;;;1.85;;
69954;SDS011;57279;55.912;37.490;2023-05-16T11:17:49;9.88;;;1.88;;
69954;SDS011;57279;55.912;37.490;2023-05-16T11:20:26;8.43;;;1.80;;
69954;SDS011;57279;55.912;37.490;2023-05-16T11:23:16;8.48;;;1.55;;
69954;SDS011;57279;55.912;37.490;2023-05-16T11:25:53;11.43;;;1.27;;
69954;SDS011;57279;55.912;37.490;2023-05-16T11:30:49;7.85;;;1.95;;
69954;SDS011;57279;55.912;37.490;2023-05-16T11:33:17;7.80;;;1.50;;
69954;SDS011;57279;55.912;37.490;2023-05-16T11:35:44;8.30;;;1.58;;
69954;SDS011;57279;55.912;37.490;2023-05-16T11:38:31;14.10;;;1.60;;
69954;SDS011;57279;55.912;37.490;2023-05-16T11:41:02;12.45;;;2.40;;
69954;SDS011;57279;55.912;37.490;2023-05-16T11:43:39;10.77;;;1.80;;
69954;SDS011;57279;55.912;37.490;2023-05-16T11:46:09;9.75;;;1.75;;
69954;SDS011;57279;55.912;37.490;2023-05-16T11:48:36;10.52;;;3.10;;
69954;SDS011;57279;55.912;37.490;2023-05-16T11:51:02;15.38;;;2.85;;
69954;SDS011;57279;55.912;37.490;2023-05-16T11:53:28;11.32;;;2.28;;
69954;SDS011;57279;55.912;37.490;2023-05-16T11:55:55;10.70;;;1.80;;
69954;SDS011;57279;55.912;37.490;2023-05-16T11:58:21;8.80;;;1.95;;
69954;SDS011;57279;55.912;37.490;2023-05-16T12:00:48;9.43;;;1.40;;
69954;SDS011;57279;55.912;37.490;2023-05-16T12:03:16;20.20;;;1.65;;
69954;SDS011;57279;55.912;37.490;2023-05-16T12:05:49;13.07;;;2.58;;
69954;SDS011;57279;55.912;37.490;2023-05-16T12:08:17;13.43;;;3.05;;
69954;SDS011;57279;55.912;37.490;2023-05-16T12:10:44;14.50;;;3.78;;
69954;SDS011;57279;55.912;37.490;2023-05-16T12:13:09;21.38;;;4.07;;
69954;SDS011;57279;55.912;37.490;2023-05-16T12:15:35;15.30;;;4.63;;
69954;SDS011;57279;55.912;37.490;2023-05-16T12:18:01;16.13;;;3.22;;
69954;SDS011;57279;55.912;37.490;2023-05-16T12:20:28;8.55;;;2.55;;
69954;SDS011;57279;55.912;37.490;2023-05-16T12:22:56;8.18;;;1.33;;
69954;SDS011;57279;55.912;37.490;2023-05-16T12:25:29;7.32;;;1.13;;
69954;SDS011;57279;55.912;37.490;2023-05-16T12:27:57;11.77;;;1.52;;
69954;SDS011;57279;55.912;37.490;2023-05-16T12:30:27;11.40;;;1.65;;
69954;SDS011;57279;55.912;37.490;2023-05-16T12:32:54;10.57;;;2.50;;
69954;SDS011;57279;55.912;37.490;2023-05-16T12:35:24;13.02;;;3.60;;
69954;SDS011;57279;55.912;37.490;2023-05-16T12:37:54;20.40;;;4.22;;
69954;SDS011;57279;55.912;37.490;2023-05-16T12:40:20;10.20;;;3.33;;
69954;SDS011;57279;55.912;37.490;2023-05-16T12:42:50;14.02;;;3.20;;
69954;SDS011;57279;55.912;37.490;2023-05-16T12:45:18;11.27;;;2.35;;
69954;SDS011;57279;55.912;37.490;2023-05-16T12:47:46;11.05;;;3.30;;
69954;SDS011;57279;55.912;37.490;2023-05-16T12:50:12;14.25;;;3.83;;
69954;SDS011;57279;55.912;37.490;2023-05-16T12:52:47;16.20;;;3.85;;
69954;SDS011;57279;55.912;37.490;2023-05-16T12:55:17;12.93;;;3.00;;
69954;SDS011;57279;55.912;37.490;2023-05-16T12:57:44;10.68;;;3.13;;
69954;SDS011;57279;55.912;37.490;2023-05-16T13:00:15;14.35;;;3.95;;
69954;SDS011;57279;55.912;37.490;2023-05-16T13:02:45;13.52;;;4.03;;
69954;SDS011;57279;55.912;37.490;2023-05-16T13:05:12;12.57;;;3.22;;
69954;SDS011;57279;55.912;37.490;2023-05-16T13:07:39;12.57;;;2.40;;
69954;SDS011;57279;55.912;37.490;2023-05-16T13:10:11;20.45;;;3.15;;
69954;SDS011;57279;55.912;37.490;2023-05-16T13:12:37;11.38;;;3.00;;
69954;SDS011;57279;55.912;37.490;2023-05-16T13:15:06;12.73;;;2.78;;
69954;SDS011;57279;55.912;37.490;2023-05-16T13:17:34;19.08;;;3.40;;
69954;SDS011;57279;55.912;37.490;2023-05-16T13:19:59;17.25;;;3.72;;
69954;SDS011;57279;55.912;37.490;2023-05-16T13:22:28;13.35;;;4.50;;
69954;SDS011;57279;55.912;37.490;2023-05-16T13:24:54;11.82;;;3.83;;
69954;SDS011;57279;55.912;37.490;2023-05-16T13:27:20;13.57;;;3.22;;
69954;SDS011;57279;55.912;37.490;2023-05-16T13:29:45;15.50;;;3.25;;
69954;SDS011;57279;55.912;37.490;2023-05-16T13:32:11;14.43;;;2.92;;
69954;SDS011;57279;55.912;37.490;2023-05-16T13:34:37;14.52;;;3.42;;
69954;SDS011;57279;55.912;37.490;2023-05-16T13:37:03;23.10;;;3.75;;
69954;SDS011;57279;55.912;37.490;2023-05-16T13:39:29;13.63;;;3.47;;
69954;SDS011;57279;55.912;37.490;2023-05-16T13:41:54;13.32;;;2.97;;
69954;SDS011;57279;55.912;37.490;2023-05-16T13:44:20;19.60;;;3.42;;
69954;SDS011;57279;55.912;37.490;2023-05-16T13:46:46;15.20;;;2.58;;
69954;SDS011;57279;55.912;37.490;2023-05-16T13:49:12;7.65;;;1.98;;
69954;SDS011;57279;55.912;37.490;2023-05-16T13:51:38;12.07;;;1.50;;
69954;SDS011;57279;55.912;37.490;2023-05-16T13:54:04;9.15;;;1.80;;
69954;SDS011;57279;55.912;37.490;2023-05-16T13:56:30;12.02;;;1.40;;
69954;SDS011;57279;55.912;37.490;2023-05-16T13:58:56;10.27;;;2.17;;
69954;SDS011;57279;55.912;37.490;2023-05-16T14:01:21;8.45;;;1.95;;
69954;SDS011;57279;55.912;37.490;2023-05-16T14:03:47;22.08;;;3.63;;
69954;SDS011;57279;55.912;37.490;2023-05-16T14:06:13;11.20;;;2.50;;
69954;SDS011;57279;55.912;37.490;2023-05-16T14:08:39;10.70;;;2.42;;
69954;SDS011;57279;55.912;37.490;2023-05-16T14:11:04;8.32;;;1.92;;
69954;SDS011;57279;55.912;37.490;2023-05-16T14:13:30;10.55;;;2.55;;
69954;SDS011;57279;55.912;37.490;2023-05-16T14:15:56;13.52;;;2.05;;
69954;SDS011;57279;55.912;37.490;2023-05-16T14:18:22;11.50;;;2.50;;
69954;SDS011;57279;55.912;37.490;2023-05-16T14:20:47;11.13;;;2.72;;
69954;SDS011;57279;55.912;37.490;2023-05-16T14:23:15;10.63;;;2.83;;
69954;SDS011;57279;55.912;37.490;2023-05-16T14:25:40;14.02;;;2.65;;
69954;SDS011;57279;55.912;37.490;2023-05-16T14:28:06;14.45;;;2.30;;
69954;SDS011;57279;55.912;37.490;2023-05-16T14:30:32;8.40;;;1.42;;
69954;SDS011;57279;55.912;37.490;2023-05-16T14:32:58;8.63;;;1.83;;
69954;SDS011;57279;55.912;37.490;2023-05-16T14:35:24;8.38;;;1.70;;
69954;SDS011;57279;55.912;37.490;2023-05-16T14:37:50;16.27;;;3.45;;
69954;SDS011;57279;55.912;37.490;2023-05-16T14:40:16;14.00;;;2.50;;
69954;SDS011;57279;55.912;37.490;2023-05-16T14:42:42;12.98;;;1.83;;
69954;SDS011;57279;55.912;37.490;2023-05-16T14:45:07;11.00;;;1.70;;
69954;SDS011;57279;55.912;37.490;2023-05-16T14:47:35;15.10;;;1.63;;
69954;SDS011;57279;55.912;37.490;2023-05-16T14:50:00;8.00;;;1.23;;